East Layton, Utah
Current Conditions -  °F | °C
As of 1:27 PM on Sunday 21 Dec 2014 (Local Time) from KHIF Reporting Station
Overcast Overcast  
Wind Chill: 33°   Ceiling: 2300
Heat Index: 41°   Visibility: 10mi
Dew Point: 41°   Wind: 14mph
Humidity: 100%   Direction: 180°S
Pressure: 29.93"   Gusts: NA
Location:  41.1018°N, 111.906°W
Report Text: KHIF 212027Z AUTO 18012KT 10SM BKN023 OVC028 05/05 A2993 RMK AO2 UPB15E27 CIG 022V027
Loading
Personal Weather Stations






























Interactive Weather Map New forecast layout! Learn more

10-Day Weather Forecast

Advertisements
Track Severe Weather on mobile